Time;durP1;ratioP1;P1;durP2;ratioP2;P2;SDS_P1;SDS_P2;PMS_P1;PMS_P2;Temp;Humidity;BMP_temperature;BMP_pressure;BME280_temperature;BME280_humidity;BME280_pressure;Samples;Min_cycle;Max_cycle;Signal;HPM_P1;HPM_P2
2022/04/11 00:00:10;;;;;;;0.10;0.10;;;;;;;;;;5134693;27;20055;-78
2022/04/11 00:02:36;;;;;;;0.10;0.10;;;;;;;;;;5116275;27;20026;-78
2022/04/11 00:05:03;;;;;;;0.10;0.10;;;;;;;;;;5134824;27;20019;-78
2022/04/11 00:07:29;;;;;;;0.13;0.13;;;;;;;;;;5134625;27;20027;-78
2022/04/11 00:09:55;;;;;;;0.10;0.10;;;;;;;;;;5134914;27;20031;-78
2022/04/11 00:12:21;;;;;;;0.10;0.10;;;;;;;;;;5134072;27;20027;-78
2022/04/11 00:14:47;;;;;;;0.10;0.10;;;;;;;;;;5135148;27;20023;-78
2022/04/11 00:17:13;;;;;;;0.10;0.10;;;;;;;;;;5135078;27;20501;-77
2022/04/11 00:19:39;;;;;;;0.10;0.10;;;;;;;;;;5134412;27;20114;-78
2022/04/11 00:22:05;;;;;;;0.10;0.10;;;;;;;;;;5134376;27;20439;-78
2022/04/11 00:24:31;;;;;;;0.10;0.10;;;;;;;;;;5115746;27;20023;-78
2022/04/11 00:26:57;;;;;;;0.10;0.10;;;;;;;;;;5134562;27;20050;-78
2022/04/11 00:29:23;;;;;;;0.10;0.10;;;;;;;;;;5134195;27;20405;-79
2022/04/11 00:31:49;;;;;;;0.20;0.20;;;;;;;;;;5134419;27;20024;-77
2022/04/11 00:34:15;;;;;;;0.10;0.10;;;;;;;;;;5134204;27;20027;-78
2022/04/11 00:36:41;;;;;;;0.10;0.10;;;;;;;;;;5134141;27;20037;-78
2022/04/11 00:39:07;;;;;;;0.10;0.10;;;;;;;;;;5134402;27;20034;-78
2022/04/11 00:41:33;;;;;;;0.10;0.10;;;;;;;;;;5134049;27;20031;-78
2022/04/11 00:43:59;;;;;;;0.10;0.10;;;;;;;;;;5134226;27;20470;-77
2022/04/11 00:46:25;;;;;;;0.10;0.10;;;;;;;;;;5132948;27;20027;-77
2022/04/11 00:48:51;;;;;;;0.10;0.10;;;;;;;;;;5114200;27;20539;-78
2022/04/11 00:51:21;;;;;;;0.57;0.57;;;;;;;;;;5134550;27;20015;-77
2022/04/11 00:53:48;;;;;;;0.10;0.10;;;;;;;;;;5134518;27;20038;-78
2022/04/11 00:56:16;;;;;;;0.10;0.10;;;;;;;;;;5134038;27;20619;-77
2022/04/11 00:58:42;;;;;;;0.10;0.10;;;;;;;;;;5133828;27;20031;-78
2022/04/11 01:01:09;;;;;;;0.10;0.10;;;;;;;;;;5113982;27;20114;-78
2022/04/11 01:03:35;;;;;;;0.10;0.10;;;;;;;;;;5133536;27;20024;-78
2022/04/11 01:06:01;;;;;;;0.10;0.10;;;;;;;;;;5133597;27;20034;-78
2022/04/11 01:08:28;;;;;;;0.10;0.10;;;;;;;;;;5133216;27;20122;-78
2022/04/11 01:10:54;;;;;;;0.10;0.10;;;;;;;;;;5107650;28;20487;-78
2022/04/11 01:13:20;;;;;;;0.10;0.10;;;;;;;;;;5124451;27;20521;-77
2022/04/11 01:15:53;;;;;;;0.10;0.10;;;;;;;;;;5133812;27;20046;-77
2022/04/11 01:18:19;;;;;;;0.10;0.10;;;;;;;;;;5114434;27;20034;-78
2022/04/11 01:20:45;;;;;;;0.10;0.10;;;;;;;;;;5133725;27;20031;-79
2022/04/11 01:23:11;;;;;;;0.10;0.10;;;;;;;;;;5105219;28;20023;-79
2022/04/11 01:25:38;;;;;;;0.15;0.15;;;;;;;;;;5126611;27;20483;-80
2022/04/11 01:28:04;;;;;;;0.10;0.10;;;;;;;;;;5098552;28;20425;-79
2022/04/11 01:30:30;;;;;;;0.10;0.10;;;;;;;;;;5132831;27;20030;-79
2022/04/11 01:32:56;;;;;;;0.10;0.10;;;;;;;;;;5133469;27;20060;-79
2022/04/11 01:35:26;;;;;;;0.38;0.38;;;;;;;;;;5114120;27;20035;-79
2022/04/11 01:37:53;;;;;;;0.13;0.13;;;;;;;;;;5100274;28;20028;-79
2022/04/11 01:40:19;;;;;;;0.10;0.10;;;;;;;;;;5131866;27;20087;-78
2022/04/11 01:42:45;;;;;;;0.20;0.20;;;;;;;;;;5114869;27;20026;-79
2022/04/11 01:45:12;;;;;;;0.30;0.30;;;;;;;;;;5132816;27;20027;-77
2022/04/11 01:47:42;;;;;;;0.10;0.10;;;;;;;;;;5132733;27;20317;-78
2022/04/11 01:50:08;;;;;;;0.10;0.10;;;;;;;;;;5132645;27;20035;-79
2022/04/11 01:52:34;;;;;;;0.10;0.10;;;;;;;;;;5132245;27;20023;-78
2022/04/11 01:55:04;;;;;;;0.10;0.10;;;;;;;;;;5132696;27;20015;-78
2022/04/11 01:57:30;;;;;;;0.17;0.17;;;;;;;;;;5131687;27;20038;-77
2022/04/11 01:59:56;;;;;;;0.10;0.10;;;;;;;;;;5132298;27;20015;-78
2022/04/11 02:02:22;;;;;;;0.10;0.10;;;;;;;;;;5132034;27;20027;-78
2022/04/11 02:04:48;;;;;;;0.43;0.43;;;;;;;;;;5132729;27;20019;-76
2022/04/11 02:07:14;;;;;;;0.10;0.10;;;;;;;;;;5132944;27;20024;-79
2022/04/11 02:09:40;;;;;;;0.10;0.10;;;;;;;;;;5132062;27;20102;-79
2022/04/11 02:12:06;;;;;;;0.13;0.13;;;;;;;;;;5112291;27;20049;-78
2022/04/11 02:14:32;;;;;;;0.10;0.10;;;;;;;;;;5098115;27;20027;-79
2022/04/11 02:16:58;;;;;;;0.10;0.10;;;;;;;;;;5132412;27;20492;-79
2022/04/11 02:19:24;;;;;;;0.10;0.10;;;;;;;;;;5112256;27;20034;-79
2022/04/11 02:21:50;;;;;;;0.10;0.10;;;;;;;;;;5132216;27;20031;-78
2022/04/11 02:24:16;;;;;;;0.52;0.52;;;;;;;;;;5132467;27;20138;-77
2022/04/11 02:26:42;;;;;;;0.10;0.10;;;;;;;;;;5108827;28;20036;-77
2022/04/11 02:29:08;;;;;;;0.00;0.00;;;;;;;;;;5121685;27;20121;-78
2022/04/11 02:31:34;;;;;;;0.10;0.10;;;;;;;;;;5113600;27;20475;-78
2022/04/11 02:34:00;;;;;;;0.10;0.10;;;;;;;;;;5131986;27;20019;-77
2022/04/11 02:36:26;;;;;;;0.10;0.10;;;;;;;;;;5131441;27;20080;-78
2022/04/11 02:38:52;;;;;;;0.10;0.10;;;;;;;;;;5132117;27;20022;-78
2022/04/11 02:41:18;;;;;;;0.10;0.10;;;;;;;;;;5131837;27;20031;-77
2022/04/11 02:43:45;;;;;;;0.10;0.10;;;;;;;;;;5132240;27;20414;-78
2022/04/11 02:46:11;;;;;;;0.10;0.10;;;;;;;;;;5131710;27;20027;-78
2022/04/11 02:48:38;;;;;;;0.10;0.10;;;;;;;;;;5098232;27;20023;-78
2022/04/11 02:51:04;;;;;;;0.20;0.20;;;;;;;;;;5112005;27;20398;-78
2022/04/11 02:53:30;;;;;;;0.10;0.10;;;;;;;;;;5131298;27;20035;-78
2022/04/11 02:55:56;;;;;;;0.10;0.10;;;;;;;;;;5111828;27;20039;-77
2022/04/11 02:58:22;;;;;;;0.10;0.10;;;;;;;;;;5131032;27;20026;-78
2022/04/11 03:00:48;;;;;;;0.10;0.10;;;;;;;;;;5131826;27;20439;-76
2022/04/11 03:03:14;;;;;;;0.10;0.10;;;;;;;;;;5131774;27;20278;-77
2022/04/11 03:05:40;;;;;;;0.10;0.10;;;;;;;;;;5112956;28;20023;-78
2022/04/11 03:08:06;;;;;;;0.10;0.10;;;;;;;;;;5131294;27;20053;-78
2022/04/11 03:10:32;;;;;;;0.10;0.10;;;;;;;;;;5130959;27;20037;-78
2022/04/11 03:12:58;;;;;;;0.13;0.13;;;;;;;;;;5131631;28;20536;-78
2022/04/11 03:15:24;;;;;;;0.10;0.10;;;;;;;;;;5131370;27;20035;-78
2022/04/11 03:17:50;;;;;;;0.10;0.10;;;;;;;;;;5131745;28;20039;-78
2022/04/11 03:20:16;;;;;;;0.10;0.10;;;;;;;;;;5113130;28;20110;-78
2022/04/11 03:22:42;;;;;;;0.10;0.10;;;;;;;;;;5130951;27;20027;-77
2022/04/11 03:25:09;;;;;;;0.10;0.10;;;;;;;;;;5131512;28;20491;-78
2022/04/11 03:27:35;;;;;;;0.20;0.20;;;;;;;;;;5131274;28;20398;-77
2022/04/11 03:30:01;;;;;;;0.10;0.10;;;;;;;;;;5131319;28;20479;-78
2022/04/11 03:32:27;;;;;;;0.10;0.10;;;;;;;;;;5130939;27;20028;-78
2022/04/11 03:34:53;;;;;;;2.65;2.47;;;;;;;;;;5105789;28;20514;-78
2022/04/11 03:37:19;;;;;;;0.10;0.10;;;;;;;;;;5121825;28;20067;-78
2022/04/11 03:39:45;;;;;;;0.10;0.10;;;;;;;;;;5131649;27;20027;-78
2022/04/11 03:42:11;;;;;;;0.10;0.10;;;;;;;;;;5131241;28;20023;-78
2022/04/11 03:44:37;;;;;;;0.10;0.10;;;;;;;;;;5116099;28;20023;-78
2022/04/11 03:47:04;;;;;;;0.10;0.10;;;;;;;;;;5131294;27;20019;-78
2022/04/11 03:49:30;;;;;;;0.10;0.10;;;;;;;;;;5131052;28;20089;-78
2022/04/11 03:51:56;;;;;;;0.10;0.10;;;;;;;;;;5130981;27;20415;-78
2022/04/11 03:54:22;;;;;;;0.10;0.10;;;;;;;;;;5130411;28;20030;-78
2022/04/11 03:56:48;;;;;;;0.10;0.10;;;;;;;;;;5131439;28;20376;-77
2022/04/11 03:59:14;;;;;;;0.10;0.10;;;;;;;;;;5131521;27;20027;-77
2022/04/11 04:01:40;;;;;;;0.10;0.10;;;;;;;;;;5130810;27;20038;-77
2022/04/11 04:04:06;;;;;;;0.10;0.10;;;;;;;;;;5130612;28;20024;-77
2022/04/11 04:06:32;;;;;;;0.13;0.13;;;;;;;;;;5110536;27;20045;-77
2022/04/11 04:08:58;;;;;;;0.15;0.15;;;;;;;;;;5130205;27;20474;-77
2022/04/11 04:11:24;;;;;;;0.20;0.20;;;;;;;;;;5130575;27;20033;-78
2022/04/11 04:13:50;;;;;;;0.10;0.10;;;;;;;;;;5130990;27;20044;-78
2022/04/11 04:16:16;;;;;;;0.10;0.10;;;;;;;;;;5131586;27;20031;-82
2022/04/11 04:18:42;;;;;;;0.10;0.10;;;;;;;;;;5112619;28;20023;-80
2022/04/11 04:21:08;;;;;;;0.10;0.10;;;;;;;;;;5131667;27;20024;-81
2022/04/11 04:23:35;;;;;;;0.10;0.10;;;;;;;;;;5134105;27;20088;-81
2022/04/11 04:26:01;;;;;;;0.10;0.10;;;;;;;;;;5134431;27;20027;-78
2022/04/11 04:28:27;;;;;;;0.10;0.10;;;;;;;;;;5133780;27;20098;-80
2022/04/11 04:30:53;;;;;;;0.10;0.10;;;;;;;;;;5134542;27;20471;-78
2022/04/11 04:33:19;;;;;;;0.10;0.10;;;;;;;;;;5134458;27;20479;-80
2022/04/11 04:35:45;;;;;;;0.40;0.40;;;;;;;;;;5134463;27;20058;-80
2022/04/11 04:38:11;;;;;;;2.95;2.70;;;;;;;;;;5133871;27;20394;-80
2022/04/11 04:40:37;;;;;;;0.10;0.10;;;;;;;;;;5118913;27;20490;-79
2022/04/11 04:43:04;;;;;;;0.10;0.10;;;;;;;;;;5134148;27;20103;-81
2022/04/11 04:45:30;;;;;;;0.10;0.10;;;;;;;;;;5133734;27;20023;-81
2022/04/11 04:47:56;;;;;;;0.10;0.10;;;;;;;;;;5133917;27;20027;-81
2022/04/11 04:50:22;;;;;;;0.10;0.10;;;;;;;;;;5133298;27;20079;-81
2022/04/11 04:52:48;;;;;;;0.10;0.10;;;;;;;;;;5134292;27;20428;-76
2022/04/11 04:55:15;;;;;;;0.10;0.10;;;;;;;;;;5135072;27;20406;-76
2022/04/11 04:57:41;;;;;;;0.10;0.10;;;;;;;;;;5133809;27;20367;-80
2022/04/11 05:00:07;;;;;;;0.10;0.10;;;;;;;;;;5133575;27;20475;-79
2022/04/11 05:02:40;;;;;;;0.20;0.20;;;;;;;;;;5114801;27;20054;-79
2022/04/11 05:05:06;;;;;;;0.10;0.10;;;;;;;;;;5134071;27;20026;-79
2022/04/11 05:07:33;;;;;;;0.10;0.10;;;;;;;;;;5133815;27;20513;-79
2022/04/11 05:09:59;;;;;;;0.10;0.10;;;;;;;;;;5133097;27;20509;-80
2022/04/11 05:12:25;;;;;;;0.10;0.10;;;;;;;;;;5131270;27;20027;-79
2022/04/11 05:14:51;;;;;;;0.10;0.10;;;;;;;;;;5133712;27;20087;-80
2022/04/11 05:17:17;;;;;;;0.10;0.10;;;;;;;;;;5133841;27;20118;-79
2022/04/11 05:19:43;;;;;;;0.38;0.38;;;;;;;;;;5133446;27;20027;-79
2022/04/11 05:22:09;;;;;;;0.20;0.20;;;;;;;;;;5133117;27;20023;-78
2022/04/11 05:24:35;;;;;;;0.10;0.10;;;;;;;;;;5132789;27;20023;-79
2022/04/11 05:27:01;;;;;;;0.10;0.10;;;;;;;;;;5133742;27;20020;-78
2022/04/11 05:29:27;;;;;;;0.10;0.10;;;;;;;;;;5132510;27;20403;-79
2022/04/11 05:31:53;;;;;;;0.20;0.20;;;;;;;;;;5112955;27;20020;-80
2022/04/11 05:34:19;;;;;;;0.10;0.10;;;;;;;;;;5118784;27;20046;-78
2022/04/11 05:36:45;;;;;;;0.10;0.10;;;;;;;;;;5133447;27;20039;-78
2022/04/11 05:39:11;;;;;;;0.10;0.10;;;;;;;;;;5132969;27;20379;-79
2022/04/11 05:41:37;;;;;;;0.13;0.13;;;;;;;;;;5132894;27;20080;-79
2022/04/11 05:44:03;;;;;;;0.10;0.10;;;;;;;;;;5133060;27;20056;-80
2022/04/11 05:46:29;;;;;;;0.10;0.10;;;;;;;;;;5133039;27;20030;-79
2022/04/11 05:48:55;;;;;;;0.13;0.13;;;;;;;;;;5133029;27;20106;-79
2022/04/11 05:51:21;;;;;;;0.20;0.20;;;;;;;;;;5133323;27;20031;-74
2022/04/11 05:53:47;;;;;;;0.20;0.20;;;;;;;;;;5133661;27;20383;-74
2022/04/11 05:56:13;;;;;;;0.10;0.10;;;;;;;;;;5132921;27;20046;-75
2022/04/11 05:58:39;;;;;;;0.10;0.10;;;;;;;;;;5132798;27;20030;-74
2022/04/11 06:01:05;;;;;;;0.90;0.90;;;;;;;;;;5114908;27;20027;-75
2022/04/11 06:03:31;;;;;;;0.10;0.10;;;;;;;;;;5133218;27;20035;-76
2022/04/11 06:05:57;;;;;;;0.45;0.45;;;;;;;;;;5132848;27;20060;-74
2022/04/11 06:08:23;;;;;;;0.10;0.10;;;;;;;;;;5132052;27;20140;-74
2022/04/11 06:10:49;;;;;;;0.10;0.10;;;;;;;;;;5132762;27;20106;-72
2022/04/11 06:13:15;;;;;;;0.15;0.15;;;;;;;;;;5132936;27;20105;-76
2022/04/11 06:15:41;;;;;;;0.17;0.17;;;;;;;;;;5132104;27;20394;-73
2022/04/11 06:18:07;;;;;;;0.10;0.10;;;;;;;;;;5132107;27;20494;-73
2022/04/11 06:20:33;;;;;;;0.10;0.10;;;;;;;;;;5132396;27;20027;-73
2022/04/11 06:23:00;;;;;;;0.10;0.10;;;;;;;;;;5131504;27;20031;-72
2022/04/11 06:25:26;;;;;;;0.10;0.10;;;;;;;;;;5104901;27;20414;-74
2022/04/11 06:27:52;;;;;;;0.10;0.10;;;;;;;;;;5130472;27;20023;-78
2022/04/11 06:30:18;;;;;;;0.10;0.10;;;;;;;;;;5131938;27;20034;-74
2022/04/11 06:32:44;;;;;;;0.10;0.10;;;;;;;;;;5132877;27;20023;-74
2022/04/11 06:35:10;;;;;;;0.10;0.10;;;;;;;;;;5100621;28;20506;-76
2022/04/11 06:37:36;;;;;;;0.10;0.10;;;;;;;;;;5127953;27;20027;-76
2022/04/11 06:40:03;;;;;;;0.20;0.20;;;;;;;;;;5131163;27;20069;-76
2022/04/11 06:42:29;;;;;;;0.10;0.10;;;;;;;;;;5130463;27;20031;-73
2022/04/11 06:44:55;;;;;;;0.10;0.10;;;;;;;;;;5130752;27;20075;-75
2022/04/11 06:47:24;;;;;;;0.10;0.10;;;;;;;;;;5131189;27;20079;-78
2022/04/11 06:49:50;;;;;;;0.10;0.10;;;;;;;;;;5131058;27;20027;-76
2022/04/11 06:52:16;;;;;;;0.10;0.10;;;;;;;;;;5131439;27;20026;-76
2022/04/11 06:54:44;;;;;;;0.10;0.10;;;;;;;;;;5130687;27;20028;-76
2022/04/11 06:57:11;;;;;;;0.10;0.10;;;;;;;;;;5130742;27;20522;-73
2022/04/11 06:59:37;;;;;;;0.10;0.10;;;;;;;;;;5115762;28;20023;-74
2022/04/11 07:02:03;;;;;;;0.10;0.10;;;;;;;;;;5131090;27;20074;-75
2022/04/11 07:04:29;;;;;;;0.10;0.10;;;;;;;;;;5131296;27;20033;-73
2022/04/11 07:06:55;;;;;;;0.10;0.10;;;;;;;;;;5127047;27;20099;-75
2022/04/11 07:09:21;;;;;;;0.10;0.10;;;;;;;;;;5122466;27;20107;-76
2022/04/11 07:11:47;;;;;;;0.13;0.13;;;;;;;;;;5126672;27;20450;-78
2022/04/11 07:14:13;;;;;;;0.10;0.10;;;;;;;;;;5130979;28;20050;-77
2022/04/11 07:16:39;;;;;;;0.10;0.10;;;;;;;;;;5130306;28;20452;-77
2022/04/11 07:19:06;;;;;;;0.10;0.10;;;;;;;;;;5129010;27;20034;-77
2022/04/11 07:21:32;;;;;;;0.10;0.10;;;;;;;;;;5119965;28;20027;-77
2022/04/11 07:23:58;;;;;;;0.10;0.10;;;;;;;;;;5122291;28;20107;-77
2022/04/11 07:26:24;;;;;;;0.10;0.10;;;;;;;;;;5120371;28;20655;-77
2022/04/11 07:28:50;;;;;;;0.10;0.10;;;;;;;;;;5105076;27;20075;-77
2022/04/11 07:31:16;;;;;;;0.20;0.20;;;;;;;;;;5131073;27;20027;-77
2022/04/11 07:33:42;;;;;;;0.10;0.10;;;;;;;;;;5102831;28;20140;-78
2022/04/11 07:36:09;;;;;;;0.30;0.30;;;;;;;;;;5106165;28;20031;-78
2022/04/11 07:38:35;;;;;;;0.20;0.20;;;;;;;;;;5119384;28;20035;-75
2022/04/11 07:41:01;;;;;;;0.10;0.10;;;;;;;;;;5127908;27;20027;-78
2022/04/11 07:43:27;;;;;;;0.10;0.10;;;;;;;;;;5113170;28;20023;-79
2022/04/11 07:45:53;;;;;;;0.10;0.10;;;;;;;;;;5131089;28;20031;-77
2022/04/11 07:48:19;;;;;;;0.10;0.10;;;;;;;;;;5120775;28;20024;-77
2022/04/11 07:50:45;;;;;;;0.10;0.10;;;;;;;;;;5117461;28;20422;-78
2022/04/11 07:53:11;;;;;;;0.10;0.10;;;;;;;;;;5110387;28;20015;-77
2022/04/11 07:55:37;;;;;;;0.10;0.10;;;;;;;;;;5109517;27;20031;-79
2022/04/11 07:58:03;;;;;;;0.10;0.10;;;;;;;;;;5134490;27;20459;-79
2022/04/11 08:00:29;;;;;;;0.15;0.15;;;;;;;;;;5107557;27;20023;-75
2022/04/11 08:02:56;;;;;;;0.10;0.10;;;;;;;;;;5115712;27;20486;-79
2022/04/11 08:05:23;;;;;;;0.20;0.20;;;;;;;;;;5134548;27;20019;-78
2022/04/11 08:07:49;;;;;;;0.10;0.10;;;;;;;;;;5135334;27;20019;-77
2022/04/11 08:10:16;;;;;;;0.10;0.10;;;;;;;;;;5133993;27;20509;-77
2022/04/11 08:12:51;;;;;;;0.10;0.10;;;;;;;;;;5134235;27;20022;-77
2022/04/11 08:15:17;;;;;;;0.15;0.15;;;;;;;;;;5114717;27;20035;-78
2022/04/11 08:17:43;;;;;;;0.10;0.10;;;;;;;;;;5134687;27;20407;-78
2022/04/11 08:20:09;;;;;;;0.10;0.10;;;;;;;;;;5106316;27;20031;-77
2022/04/11 08:22:35;;;;;;;0.10;0.10;;;;;;;;;;5131086;27;20033;-78
2022/04/11 08:25:01;;;;;;;0.10;0.10;;;;;;;;;;5133874;27;20106;-78
2022/04/11 08:27:27;;;;;;;0.10;0.10;;;;;;;;;;5119174;27;20111;-78
2022/04/11 08:29:53;;;;;;;0.10;0.10;;;;;;;;;;5113252;27;20483;-78
2022/04/11 08:32:19;;;;;;;0.10;0.10;;;;;;;;;;5116413;27;20019;-78
2022/04/11 08:34:45;;;;;;;0.20;0.20;;;;;;;;;;5135306;27;20478;-79
2022/04/11 08:37:11;;;;;;;0.10;0.10;;;;;;;;;;5130493;27;20035;-77
2022/04/11 08:39:38;;;;;;;0.10;0.10;;;;;;;;;;5116179;27;20068;-77
2022/04/11 08:42:04;;;;;;;0.10;0.10;;;;;;;;;;5134846;27;20051;-77
2022/04/11 08:44:33;;;;;;;0.10;0.10;;;;;;;;;;5134568;27;20470;-76
2022/04/11 08:47:03;;;;;;;0.10;0.10;;;;;;;;;;5134747;27;20387;-77
2022/04/11 08:49:30;;;;;;;0.10;0.10;;;;;;;;;;5115855;27;20023;-77
2022/04/11 08:51:56;;;;;;;0.10;0.10;;;;;;;;;;5134612;27;20031;-77
2022/04/11 08:54:22;;;;;;;0.10;0.10;;;;;;;;;;5134377;27;20015;-78
2022/04/11 08:56:48;;;;;;;0.10;0.10;;;;;;;;;;5134539;27;20092;-76
2022/04/11 08:59:14;;;;;;;0.10;0.10;;;;;;;;;;5116456;27;20058;-78
2022/04/11 09:01:41;;;;;;;0.15;0.15;;;;;;;;;;5134188;27;20034;-78
2022/04/11 09:04:10;;;;;;;0.10;0.10;;;;;;;;;;5134331;27;20020;-77
2022/04/11 09:06:36;;;;;;;0.10;0.10;;;;;;;;;;5133789;27;20050;-76
2022/04/11 09:09:03;;;;;;;0.10;0.10;;;;;;;;;;5115524;27;20383;-78
2022/04/11 09:11:30;;;;;;;0.10;0.10;;;;;;;;;;5133916;27;20023;-78
2022/04/11 09:13:56;;;;;;;0.10;0.10;;;;;;;;;;5134085;27;20383;-78
2022/04/11 09:16:22;;;;;;;0.10;0.10;;;;;;;;;;5133785;27;20031;-77
2022/04/11 09:18:52;;;;;;;0.20;0.20;;;;;;;;;;5134135;27;20085;-75
2022/04/11 09:21:19;;;;;;;0.10;0.10;;;;;;;;;;5133921;27;20027;-74
2022/04/11 09:23:45;;;;;;;0.10;0.10;;;;;;;;;;5134377;27;20079;-79
2022/04/11 09:26:22;;;;;;;0.10;0.10;;;;;;;;;;5115554;27;20038;-79
2022/04/11 09:29:00;;;;;;;0.10;0.10;;;;;;;;;;5133969;27;20084;-75
2022/04/11 09:31:27;;;;;;;0.10;0.10;;;;;;;;;;5133234;27;20397;-77
2022/04/11 09:33:53;;;;;;;0.10;0.10;;;;;;;;;;5133853;27;20443;-78
2022/04/11 09:36:20;;;;;;;0.10;0.10;;;;;;;;;;5115076;27;20122;-79
2022/04/11 09:38:57;;;;;;;0.10;0.10;;;;;;;;;;5110326;28;20562;-78
2022/04/11 09:41:28;;;;;;;0.10;0.10;;;;;;;;;;5112975;28;20023;-78
2022/04/11 09:43:54;;;;;;;0.10;0.10;;;;;;;;;;5113160;28;20027;-79
2022/04/11 09:46:20;;;;;;;0.10;0.10;;;;;;;;;;5112935;28;20024;-79
2022/04/11 09:48:46;;;;;;;0.20;0.20;;;;;;;;;;5113094;28;20140;-79
2022/04/11 09:51:13;;;;;;;0.20;0.20;;;;;;;;;;5112823;28;20027;-79
2022/04/11 09:53:41;;;;;;;0.10;0.10;;;;;;;;;;5112678;28;20015;-80
2022/04/11 09:56:08;;;;;;;0.10;0.10;;;;;;;;;;5113534;27;20019;-79
2022/04/11 09:58:35;;;;;;;0.10;0.10;;;;;;;;;;5131651;27;20424;-81
2022/04/11 10:01:02;;;;;;;0.10;0.10;;;;;;;;;;5133320;27;20023;-81
2022/04/11 10:03:29;;;;;;;0.10;0.10;;;;;;;;;;5133011;27;20023;-81
2022/04/11 10:05:56;;;;;;;0.10;0.10;;;;;;;;;;5133428;27;20492;-82
2022/04/11 10:08:25;;;;;;;0.10;0.10;;;;;;;;;;5133026;27;20023;-80
2022/04/11 10:10:51;;;;;;;0.10;0.10;;;;;;;;;;5114847;27;20023;-80
2022/04/11 10:13:17;;;;;;;0.10;0.10;;;;;;;;;;5114713;27;20442;-79
2022/04/11 10:15:46;;;;;;;0.10;0.10;;;;;;;;;;5133107;27;20111;-78
2022/04/11 10:18:13;;;;;;;0.10;0.10;;;;;;;;;;5132882;27;20023;-80
2022/04/11 10:20:43;;;;;;;0.10;0.10;;;;;;;;;;5132046;27;20043;-79
2022/04/11 10:23:09;;;;;;;0.10;0.10;;;;;;;;;;5133037;27;20026;-79
2022/04/11 10:25:38;;;;;;;0.10;0.10;;;;;;;;;;5132777;27;20432;-78
2022/04/11 10:28:23;;;;;;;0.10;0.10;;;;;;;;;;5133092;27;20420;-81
2022/04/11 10:31:21;;;;;;;0.10;0.10;;;;;;;;;;5114457;27;20031;-80
2022/04/11 10:33:51;;;;;;;0.10;0.10;;;;;;;;;;5059806;27;20031;-81
2022/04/11 10:36:28;;;;;;;0.10;0.10;;;;;;;;;;5132927;27;20057;-78
2022/04/11 10:39:13;;;;;;;0.10;0.10;;;;;;;;;;5132946;27;20024;-79
2022/04/11 10:41:57;;;;;;;0.10;0.10;;;;;;;;;;5132550;27;20050;-79
2022/04/11 10:44:41;;;;;;;1.83;1.75;;;;;;;;;;5132674;27;20490;-81
2022/04/11 10:47:11;;;;;;;0.10;0.10;;;;;;;;;;5114083;27;20034;-79
2022/04/11 10:49:53;;;;;;;0.10;0.10;;;;;;;;;;5113827;27;20027;-79
2022/04/11 10:52:34;;;;;;;0.10;0.10;;;;;;;;;;5113733;27;20058;-76
2022/04/11 10:55:07;;;;;;;0.10;0.10;;;;;;;;;;5132315;27;20015;-77
2022/04/11 10:57:46;;;;;;;0.10;0.10;;;;;;;;;;5113657;27;20035;-80
2022/04/11 11:00:19;;;;;;;0.10;0.10;;;;;;;;;;5113816;28;20103;-79
2022/04/11 11:02:59;;;;;;;0.10;0.10;;;;;;;;;;5114228;27;20391;-79
2022/04/11 11:05:28;;;;;;;0.10;0.10;;;;;;;;;;5132109;27;20382;-78
2022/04/11 11:08:09;;;;;;;0.10;0.10;;;;;;;;;;5114563;28;20111;-79
2022/04/11 11:10:38;;;;;;;0.10;0.10;;;;;;;;;;5113711;28;20058;-79
2022/04/11 11:13:27;;;;;;;0.10;0.10;;;;;;;;;;5114123;28;20376;-79
2022/04/11 11:15:56;;;;;;;0.10;0.10;;;;;;;;;;5131831;27;20479;-79
2022/04/11 11:18:22;;;;;;;0.10;0.10;;;;;;;;;;5132456;27;20023;-77
2022/04/11 11:20:51;;;;;;;12.30;11.05;;;;;;;;;;5114386;28;20027;-74
2022/04/11 11:23:27;;;;;;;0.10;0.10;;;;;;;;;;5132594;27;20119;-77
2022/04/11 11:25:54;;;;;;;0.10;0.10;;;;;;;;;;5113880;28;20435;-77
2022/04/11 11:28:21;;;;;;;0.10;0.10;;;;;;;;;;5132566;27;20068;-75
2022/04/11 11:30:47;;;;;;;0.10;0.10;;;;;;;;;;5134247;27;20062;-78
2022/04/11 11:33:14;;;;;;;0.10;0.10;;;;;;;;;;5137165;27;20027;-76
2022/04/11 11:35:54;;;;;;;0.10;0.10;;;;;;;;;;5128441;27;20501;-76
2022/04/11 11:38:24;;;;;;;0.10;0.10;;;;;;;;;;5106708;27;20027;-74
2022/04/11 11:41:00;;;;;;;0.03;0.03;;;;;;;;;;5124475;27;20019;-76
2022/04/11 11:43:27;;;;;;;0.10;0.10;;;;;;;;;;5130990;27;20058;-77
2022/04/11 11:45:57;;;;;;;0.10;0.10;;;;;;;;;;5106635;27;20016;-76
2022/04/11 11:48:32;;;;;;;0.10;0.10;;;;;;;;;;5117634;27;20032;-76
2022/04/11 11:50:59;;;;;;;0.10;0.10;;;;;;;;;;5115389;28;20019;-77
2022/04/11 11:53:27;;;;;;;0.10;0.10;;;;;;;;;;5115114;28;20031;-77
2022/04/11 11:55:57;;;;;;;0.10;0.10;;;;;;;;;;5097021;28;20042;-76
2022/04/11 11:58:33;;;;;;;0.10;0.10;;;;;;;;;;5115208;28;20031;-77
2022/04/11 12:00:59;;;;;;;0.10;0.10;;;;;;;;;;5096914;28;20015;-77
2022/04/11 12:06:10;;;;;;;0.10;0.10;;;;;;;;;;5114983;28;20498;-77
2022/04/11 12:08:36;;;;;;;0.10;0.10;;;;;;;;;;5114777;28;20019;-77
2022/04/11 12:11:03;;;;;;;0.10;0.10;;;;;;;;;;5119662;27;20030;-76
2022/04/11 12:13:32;;;;;;;0.10;0.10;;;;;;;;;;5123489;27;20039;-76
2022/04/11 12:16:09;;;;;;;0.10;0.10;;;;;;;;;;5122320;27;20023;-77
2022/04/11 12:18:54;;;;;;;0.10;0.10;;;;;;;;;;5103704;27;20444;-79
2022/04/11 12:21:37;;;;;;;0.10;0.10;;;;;;;;;;5122180;27;20509;-77
2022/04/11 12:24:04;;;;;;;0.10;0.10;;;;;;;;;;5135299;27;20031;-76
2022/04/11 12:26:32;;;;;;;0.10;0.10;;;;;;;;;;5134962;27;20113;-77
2022/04/11 12:28:58;;;;;;;0.10;0.10;;;;;;;;;;5116684;27;20034;-77
2022/04/11 12:31:24;;;;;;;0.10;0.10;;;;;;;;;;5116370;27;20029;-77
2022/04/11 12:33:51;;;;;;;0.10;0.10;;;;;;;;;;5116589;27;20072;-77
2022/04/11 12:36:27;;;;;;;0.10;0.10;;;;;;;;;;5135291;27;20027;-77
2022/04/11 12:38:53;;;;;;;;;;;;;;;;;;5116898;27;20015;-77
2022/04/11 12:41:29;;;;;;;0.10;0.10;;;;;;;;;;5116172;27;19957;-77
2022/04/11 12:44:13;;;;;;;0.08;0.08;;;;;;;;;;5134072;27;20080;-77
2022/04/11 12:46:41;;;;;;;0.10;0.10;;;;;;;;;;5116811;27;20023;-77
2022/04/11 12:49:08;;;;;;;0.10;0.10;;;;;;;;;;5116625;27;20030;-77
2022/04/11 12:51:34;;;;;;;0.10;0.10;;;;;;;;;;5134735;27;20073;-78
2022/04/11 12:54:13;;;;;;;0.10;0.10;;;;;;;;;;5134842;27;20034;-77
2022/04/11 12:56:39;;;;;;;0.10;0.10;;;;;;;;;;5134460;27;20039;-77
2022/04/11 12:59:05;;;;;;;0.10;0.10;;;;;;;;;;5134777;27;20030;-77
2022/04/11 13:01:50;;;;;;;0.10;0.10;;;;;;;;;;5134428;27;20095;-77
2022/04/11 13:04:16;;;;;;;0.10;0.10;;;;;;;;;;5134663;27;20027;-77
2022/04/11 13:06:42;;;;;;;0.10;0.10;;;;;;;;;;5115873;27;20474;-77
2022/04/11 13:09:08;;;;;;;0.10;0.10;;;;;;;;;;5134426;27;20062;-78
2022/04/11 13:11:44;;;;;;;0.10;0.10;;;;;;;;;;5134365;27;20022;-77
2022/04/11 13:14:10;;;;;;;;;;;;;;;;;;5134899;27;20035;-78
2022/04/11 13:19:21;;;;;;;0.10;0.10;;;;;;;;;;5134337;27;20058;-77
2022/04/11 13:21:50;;;;;;;0.05;0.05;;;;;;;;;;5116196;27;20079;-77
2022/04/11 13:24:16;;;;;;;0.10;0.10;;;;;;;;;;5134643;27;20023;-78
2022/04/11 13:26:42;;;;;;;0.10;0.10;;;;;;;;;;5133981;27;20030;-77
2022/04/11 13:29:08;;;;;;;0.10;0.10;;;;;;;;;;5115653;27;20019;-77
2022/04/11 13:31:35;;;;;;;0.10;0.10;;;;;;;;;;5133880;27;20027;-78
2022/04/11 13:34:01;;;;;;;0.10;0.10;;;;;;;;;;5134217;27;20390;-78
2022/04/11 13:36:27;;;;;;;0.13;0.13;;;;;;;;;;5134022;27;20114;-78
2022/04/11 13:38:53;;;;;;;0.10;0.10;;;;;;;;;;5134264;27;20028;-77
2022/04/11 13:41:19;;;;;;;0.10;0.10;;;;;;;;;;5133675;27;20110;-76
2022/04/11 13:43:45;;;;;;;0.00;0.00;;;;;;;;;;5134574;27;20055;-77
2022/04/11 13:46:11;;;;;;;0.10;0.10;;;;;;;;;;5133987;27;20060;-78
2022/04/11 13:48:38;;;;;;;0.10;0.10;;;;;;;;;;5133529;27;20084;-78
2022/04/11 13:51:04;;;;;;;0.10;0.10;;;;;;;;;;5115453;27;20467;-78
2022/04/11 13:53:30;;;;;;;0.10;0.10;;;;;;;;;;5115060;27;20028;-77
2022/04/11 13:55:59;;;;;;;0.10;0.10;;;;;;;;;;5133738;27;20583;-76
2022/04/11 13:58:26;;;;;;;0.10;0.10;;;;;;;;;;5133429;27;20055;-76
2022/04/11 14:00:52;;;;;;;0.10;0.10;;;;;;;;;;5133864;27;20470;-77
2022/04/11 14:03:18;;;;;;;0.10;0.10;;;;;;;;;;5120310;27;20084;-75
2022/04/11 14:05:44;;;;;;;0.10;0.10;;;;;;;;;;5113761;28;20387;-76
2022/04/11 14:08:11;;;;;;;0.10;0.10;;;;;;;;;;5113602;28;20107;-78
2022/04/11 14:10:38;;;;;;;0.10;0.10;;;;;;;;;;5112837;28;20027;-77
2022/04/11 14:13:04;;;;;;;0.10;0.10;;;;;;;;;;5113146;28;20032;-77
2022/04/11 14:15:30;;;;;;;0.10;0.10;;;;;;;;;;5113240;28;20055;-77
2022/04/11 14:17:56;;;;;;;0.10;0.10;;;;;;;;;;5112738;28;20510;-77
2022/04/11 14:20:22;;;;;;;0.10;0.10;;;;;;;;;;5112493;28;20099;-76
2022/04/11 14:22:48;;;;;;;0.10;0.10;;;;;;;;;;5112686;28;20034;-75
2022/04/11 14:25:14;;;;;;;0.10;0.10;;;;;;;;;;5112600;28;20016;-73
2022/04/11 14:27:40;;;;;;;0.10;0.10;;;;;;;;;;5093883;28;20020;-74
2022/04/11 14:30:06;;;;;;;0.08;0.08;;;;;;;;;;5112321;28;20024;-75
2022/04/11 14:32:32;;;;;;;0.10;0.10;;;;;;;;;;5113659;28;20015;-74
2022/04/11 14:34:58;;;;;;;0.10;0.10;;;;;;;;;;5113587;28;20023;-76
2022/04/11 14:37:24;;;;;;;0.10;0.10;;;;;;;;;;5113395;28;20392;-76
2022/04/11 14:39:50;;;;;;;0.10;0.10;;;;;;;;;;5113665;28;20027;-74
2022/04/11 14:42:17;;;;;;;0.10;0.10;;;;;;;;;;5096441;28;20034;-75
2022/04/11 14:44:46;;;;;;;0.10;0.10;;;;;;;;;;5112847;28;20027;-75
2022/04/11 14:47:15;;;;;;;0.10;0.10;;;;;;;;;;5095834;28;20483;-76
2022/04/11 14:49:41;;;;;;;0.10;0.10;;;;;;;;;;5096373;28;20096;-77